Time;durP1;ratioP1;P1;durP2;ratioP2;P2;SDS_P1;SDS_P2;PMS_P1;PMS_P2;Temp;Humidity;BMP_temperature;BMP_pressure;BME280_temperature;BME280_humidity;BME280_pressure;Samples;Min_cycle;Max_cycle;Signal;HPM_P1;HPM_P2
2023/07/09 00:00:48;;;;;;;15.55;14.05;;;;;25.00;100665.00;;;;2061321;28;20211;-70
2023/07/09 00:01:49;;;;;;;16.33;12.60;;;;;25.00;100686.00;;;;2064303;28;20290;-70
2023/07/09 00:02:50;;;;;;;14.50;13.10;;;;;25.00;100687.00;;;;2057108;28;20470;-70
2023/07/09 00:03:54;;;;;;;14.17;12.67;;;;;25.00;100688.00;;;;2057996;28;20704;-70
2023/07/09 00:04:54;;;;;;;14.88;13.30;;;;;25.00;100692.00;;;;2062920;28;20218;-70
2023/07/09 00:05:54;;;;;;;15.03;13.47;;;;;25.00;100689.00;;;;2071871;28;20688;-70
2023/07/09 00:06:57;;;;;;;14.03;12.67;;;;;25.00;100683.00;;;;2063736;28;20663;-70
2023/07/09 00:07:57;;;;;;;15.10;13.60;;;;;25.00;100684.00;;;;2048205;28;20299;-70
2023/07/09 00:08:57;;;;;;;14.13;12.73;;;;;25.00;100678.00;;;;2048819;28;20222;-70
2023/07/09 00:09:58;;;;;;;15.03;13.50;;;;;25.00;100674.00;;;;2055867;28;20214;-70
2023/07/09 00:10:58;;;;;;;14.73;13.37;;;;;25.00;100678.00;;;;2055279;28;20223;-70
2023/07/09 00:11:58;;;;;;;15.67;14.17;;;;;25.00;100691.00;;;;2054765;28;20588;-70
2023/07/09 00:12:59;;;;;;;15.20;13.80;;;;;25.00;100689.00;;;;2055290;28;20728;-70
2023/07/09 00:13:59;;;;;;;14.07;12.67;;;;;25.00;100671.00;;;;2054475;28;20675;-70
2023/07/09 00:14:59;;;;;;;14.33;12.93;;;;;25.00;100688.00;;;;2061910;28;20601;-70
2023/07/09 00:16:00;;;;;;;14.60;13.10;;;;;25.00;100666.00;;;;2058115;28;20709;-70
2023/07/09 00:17:01;;;;;;;13.73;12.40;;;;;25.00;100692.00;;;;2061251;28;20238;-70
2023/07/09 00:18:01;;;;;;;14.33;13.03;;;;;25.00;100688.00;;;;2048433;28;20477;-70
2023/07/09 00:19:02;;;;;;;15.63;14.13;;;;;25.00;100688.00;;;;2045579;28;21002;-70
2023/07/09 00:20:13;;;;;;;14.47;12.93;;;;;25.00;100684.00;;;;2064410;28;20385;-70
2023/07/09 00:21:13;;;;;;;14.13;12.73;;;;;25.00;100689.00;;;;2064156;28;20675;-70
2023/07/09 00:22:18;;;;;;;13.73;12.33;;;;;25.00;100679.00;;;;2067017;28;20467;-70
2023/07/09 00:23:19;;;;;;;14.37;12.87;;;;;25.00;100686.00;;;;2039134;28;20772;-70
2023/07/09 00:24:19;;;;;;;12.90;11.67;;;;;25.00;100689.00;;;;2048125;28;20552;-70
2023/07/09 00:25:20;;;;;;;13.90;12.50;;;;;25.00;100689.00;;;;2065714;28;20447;-70
2023/07/09 00:26:23;;;;;;;13.33;12.03;;;;;25.00;100690.00;;;;2063785;28;20664;-70
2023/07/09 00:27:24;;;;;;;13.63;12.23;;;;;25.00;100680.00;;;;2055637;28;20231;-70
2023/07/09 00:28:25;;;;;;;14.17;12.83;;;;;25.00;100690.00;;;;2043489;28;20231;-70
2023/07/09 00:29:25;;;;;;;13.90;12.60;;;;;25.00;100682.00;;;;2063664;28;20442;-70
2023/07/09 00:30:25;;;;;;;13.57;12.17;;;;;25.00;100681.00;;;;2059806;28;20211;-70
2023/07/09 00:31:26;;;;;;;13.53;12.13;;;;;25.00;100676.00;;;;2051797;28;20231;-70
2023/07/09 00:32:28;;;;;;;13.07;11.77;;;;;25.00;100684.00;;;;2055161;28;20251;-70
2023/07/09 00:33:31;;;;;;;13.82;12.50;;;;;25.00;100689.00;;;;2050185;28;20249;-70
2023/07/09 00:34:31;;;;;;;13.33;12.03;;;;;25.00;100682.00;;;;2061359;28;20202;-70
2023/07/09 00:35:31;;;;;;;13.30;12.00;;;;;25.00;100688.00;;;;2058917;28;20494;-70
2023/07/09 00:36:32;;;;;;;13.73;12.37;;;;;25.00;100680.00;;;;2058755;28;20212;-70
2023/07/09 00:37:32;;;;;;;14.00;12.70;;;;;25.00;100685.00;;;;2061741;28;20264;-70
2023/07/09 00:38:38;;;;;;;13.13;11.83;;;;;25.00;100681.00;;;;2053094;28;20234;-70
2023/07/09 00:39:40;;;;;;;14.30;12.90;;;;;25.00;100684.00;;;;2062360;28;20231;-70
2023/07/09 00:40:46;;;;;;;14.13;12.73;;;;;25.00;100660.00;;;;2058453;28;20239;-70
2023/07/09 00:41:47;;;;;;;14.38;12.98;;;;;25.00;100674.00;;;;2056483;28;20457;-70
2023/07/09 00:42:49;;;;;;;13.87;12.47;;;;;25.00;100673.00;;;;2064833;28;20890;-70
2023/07/09 00:43:50;;;;;;;13.80;12.40;;;;;25.00;100660.00;;;;2033116;28;20520;-70
2023/07/09 00:44:51;;;;;;;12.60;11.30;;;;;25.00;100680.00;;;;2040457;28;20524;-70
2023/07/09 00:46:13;;;;;;;13.43;12.03;;;;;25.00;100679.00;;;;2054110;28;20454;-70
2023/07/09 00:47:26;;;;;;;13.50;12.10;;;;;25.00;100678.00;;;;2050269;28;20886;-70
2023/07/09 00:48:31;;;;;;;14.65;13.18;;;;;25.00;100678.00;;;;2039930;28;20809;-70
2023/07/09 00:49:46;;;;;;;13.03;11.73;;;;;25.00;100667.00;;;;2053563;28;20270;-70
2023/07/09 00:50:48;;;;;;;13.50;12.10;;;;;25.00;100671.00;;;;2054160;28;20545;-70
2023/07/09 00:51:48;;;;;;;13.00;11.80;;;;;25.00;100670.00;;;;2055973;28;20224;-70
2023/07/09 00:52:54;;;;;;;13.53;12.10;;;;;25.00;100667.00;;;;2062506;28;20986;-70
2023/07/09 00:53:58;;;;;;;12.85;11.60;;;;;25.00;100669.00;;;;2034685;28;20220;-70
2023/07/09 00:54:59;;;;;;;13.25;11.95;;;;;25.00;100675.00;;;;2040439;28;20228;-70
2023/07/09 00:56:03;;;;;;;13.60;12.30;;;;;25.00;100670.00;;;;2065967;28;20210;-70
2023/07/09 00:57:17;;;;;;;13.30;12.00;;;;;25.00;100671.00;;;;2049932;28;20464;-70
2023/07/09 00:58:18;;;;;;;13.50;12.15;;;;;25.00;100662.00;;;;2034620;28;20211;-70
2023/07/09 00:59:24;;;;;;;13.47;12.27;;;;;25.00;100649.00;;;;2055127;28;20791;-70
2023/07/09 01:00:28;;;;;;;12.50;11.32;;;;;25.00;100675.00;;;;2060418;28;20709;-70
2023/07/09 01:01:28;;;;;;;12.98;11.77;;;;;25.00;100677.00;;;;2049102;28;20330;-70
2023/07/09 01:02:29;;;;;;;13.60;12.30;;;;;25.00;100671.00;;;;2047431;28;20287;-70
2023/07/09 01:03:41;;;;;;;13.13;11.80;;;;;25.00;100688.00;;;;2034179;28;20228;-70
2023/07/09 01:04:41;;;;;;;14.35;13.02;;;;;25.00;100673.00;;;;2054704;28;20215;-70
2023/07/09 01:05:43;;;;;;;13.40;12.10;;;;;25.00;100678.00;;;;2045955;28;20216;-70
2023/07/09 01:06:44;;;;;;;13.30;12.00;;;;;25.00;100678.00;;;;2047105;28;20223;-70
2023/07/09 01:07:46;;;;;;;12.45;11.25;;;;;25.00;100688.00;;;;2057503;28;20636;-70
2023/07/09 01:08:53;;;;;;;13.23;11.93;;;;;25.00;100676.00;;;;2047207;28;20226;-70
2023/07/09 01:09:53;;;;;;;13.07;11.77;;;;;25.00;100671.00;;;;2048736;28;20299;-70
2023/07/09 01:10:53;;;;;;;11.73;10.63;;;;;25.00;100678.00;;;;2041639;28;20838;-70
2023/07/09 01:11:56;;;;;;;12.73;11.50;;;;;25.00;100672.00;;;;2062155;28;20215;-70
2023/07/09 01:12:56;;;;;;;13.70;12.30;;;;;25.00;100671.00;;;;2055450;28;20246;-70
2023/07/09 01:13:58;;;;;;;13.00;11.80;;;;;25.00;100674.00;;;;2027740;28;20787;-70
2023/07/09 01:14:58;;;;;;;12.82;11.57;;;;;25.00;100657.00;;;;2058163;28;20266;-70
2023/07/09 01:15:59;;;;;;;13.03;11.77;;;;;25.00;100666.00;;;;2048926;28;20231;-70
2023/07/09 01:17:01;;;;;;;13.60;12.20;;;;;25.00;100673.00;;;;2045043;29;20239;-70
2023/07/09 01:18:01;;;;;;;12.20;11.00;;;;;25.00;100674.00;;;;2042862;28;20452;-70
2023/07/09 01:19:01;;;;;;;13.23;11.80;;;;;25.00;100690.00;;;;2059973;28;21244;-70
2023/07/09 01:20:03;;;;;;;15.13;11.53;;;;;25.00;100686.00;;;;2067429;28;20729;-70
2023/07/09 01:21:07;;;;;;;12.13;10.95;;;;;25.00;100680.00;;;;2060042;28;20219;-70
2023/07/09 01:22:07;;;;;;;13.10;11.90;;;;;25.00;100674.00;;;;2063150;28;20245;-70
2023/07/09 01:23:07;;;;;;;11.47;10.33;;;;;25.00;100670.00;;;;2044525;28;20464;-70
2023/07/09 01:24:15;;;;;;;12.20;11.00;;;;;25.00;100671.00;;;;2054989;28;20279;-70
2023/07/09 01:25:16;;;;;;;11.70;10.53;;;;;25.00;100675.00;;;;2056629;28;20580;-70
2023/07/09 01:26:18;;;;;;;11.50;10.40;;;;;25.00;100655.00;;;;2054933;28;20479;-70
2023/07/09 01:27:21;;;;;;;11.40;10.30;;;;;25.00;100676.00;;;;2047591;28;20594;-70
2023/07/09 01:28:22;;;;;;;13.20;11.90;;;;;25.00;100674.00;;;;2038425;28;20592;-70
2023/07/09 01:29:22;;;;;;;13.23;11.83;;;;;25.00;100673.00;;;;2056482;28;20452;-70
2023/07/09 01:30:28;;;;;;;11.43;10.23;;;;;25.00;100665.00;;;;2066304;28;20211;-70
2023/07/09 01:31:29;;;;;;;12.20;11.00;;;;;25.00;100672.00;;;;2052975;28;20200;-70
2023/07/09 01:32:29;;;;;;;10.83;9.83;;;;;25.00;100667.00;;;;2049424;28;20535;-70
2023/07/09 01:33:29;;;;;;;11.97;10.87;;;;;25.00;100673.00;;;;2049949;28;20251;-70
2023/07/09 01:34:30;;;;;;;11.23;10.13;;;;;25.00;100671.00;;;;2062526;28;20896;-70
2023/07/09 01:35:31;;;;;;;11.33;10.23;;;;;25.00;100670.00;;;;2059069;28;20621;-70
2023/07/09 01:36:31;;;;;;;13.33;12.03;;;;;25.00;100671.00;;;;2061169;28;20208;-70
2023/07/09 01:37:36;;;;;;;11.37;10.27;;;;;25.00;100652.00;;;;2060753;28;20470;-70
2023/07/09 01:38:37;;;;;;;11.83;10.73;;;;;25.00;100674.00;;;;2043802;28;20231;-70
2023/07/09 01:39:40;;;;;;;11.03;9.93;;;;;25.00;100677.00;;;;2051996;28;20853;-70
2023/07/09 01:40:40;;;;;;;12.52;11.32;;;;;25.00;100676.00;;;;2053111;28;20218;-70
2023/07/09 01:41:41;;;;;;;11.40;10.30;;;;;25.00;100684.00;;;;2062554;28;20757;-70
2023/07/09 01:42:42;;;;;;;11.60;10.50;;;;;25.00;100674.00;;;;2066872;28;20901;-70
2023/07/09 01:43:43;;;;;;;11.30;10.20;;;;;25.00;100676.00;;;;2042523;28;20220;-70
2023/07/09 01:44:45;;;;;;;11.70;10.50;;;;;25.00;100655.00;;;;2049576;28;20452;-70
2023/07/09 01:45:49;;;;;;;10.73;9.63;;;;;25.00;100670.00;;;;2059901;28;20274;-70
2023/07/09 01:46:50;;;;;;;11.03;9.83;;;;;25.00;100673.00;;;;2062301;28;20725;-70
2023/07/09 01:47:53;;;;;;;11.27;10.10;;;;;25.00;100670.00;;;;2069568;28;20528;-70
2023/07/09 01:48:53;;;;;;;11.70;10.50;;;;;25.00;100673.00;;;;2044378;28;20975;-70
2023/07/09 01:49:57;;;;;;;12.10;10.90;;;;;25.00;100673.00;;;;2047429;28;20460;-70
2023/07/09 01:50:57;;;;;;;11.47;10.37;;;;;25.00;100678.00;;;;2064055;28;20225;-70
2023/07/09 01:52:00;;;;;;;10.33;9.33;;;;;25.00;100669.00;;;;2062727;28;20481;-70
2023/07/09 01:53:01;;;;;;;11.30;10.20;;;;;25.00;100672.00;;;;2052764;28;20216;-70
2023/07/09 01:54:02;;;;;;;11.80;10.70;;;;;24.90;100672.00;;;;2032949;29;21020;-70
2023/07/09 01:55:03;;;;;;;11.30;10.20;;;;;25.00;100673.00;;;;2046949;28;20239;-70
2023/07/09 01:56:03;;;;;;;11.90;10.70;;;;;25.00;100673.00;;;;2065771;28;20454;-70
2023/07/09 01:57:19;;;;;;;11.20;10.20;;;;;25.00;100673.00;;;;2059907;28;20514;-70
2023/07/09 01:58:19;;;;;;;10.70;9.65;;;;;25.00;100669.00;;;;2047503;28;20215;-70
2023/07/09 01:59:20;;;;;;;10.93;9.93;;;;;25.00;100673.00;;;;2055305;28;20266;-70
2023/07/09 02:00:21;;;;;;;10.67;9.57;;;;;25.00;100671.00;;;;2052950;28;20203;-70
2023/07/09 02:01:21;;;;;;;10.50;9.50;;;;;25.00;100673.00;;;;2059259;28;20463;-70
2023/07/09 02:02:22;;;;;;;10.80;9.73;;;;;25.00;100664.00;;;;2059175;28;20220;-70
2023/07/09 02:03:24;;;;;;;10.33;9.33;;;;;25.00;100676.00;;;;2045437;28;20359;-70
2023/07/09 02:04:27;;;;;;;10.60;9.57;;;;;25.00;100668.00;;;;2056939;28;20211;-70
2023/07/09 02:05:29;;;;;;;11.48;10.25;;;;;25.00;100677.00;;;;2051585;28;20204;-70
2023/07/09 02:06:31;;;;;;;10.73;9.73;;;;;25.00;100678.00;;;;2048298;28;20579;-70
2023/07/09 02:07:32;;;;;;;9.87;8.90;;;;;25.00;100671.00;;;;2058619;28;20885;-70
2023/07/09 02:08:32;;;;;;;10.20;9.30;;;;;25.00;100672.00;;;;2049686;28;20458;-70
2023/07/09 02:09:32;;;;;;;10.70;9.60;;;;;25.00;100674.00;;;;2063123;28;20758;-70
2023/07/09 02:10:33;;;;;;;10.93;9.83;;;;;25.00;100668.00;;;;2044490;28;20550;-70
2023/07/09 02:11:33;;;;;;;10.50;9.40;;;;;25.00;100673.00;;;;2038337;29;20720;-70
2023/07/09 02:12:34;;;;;;;10.90;9.90;;;;;25.00;100679.00;;;;2058294;28;20204;-70
2023/07/09 02:13:34;;;;;;;11.67;10.57;;;;;25.00;100671.00;;;;2054465;28;20225;-70
2023/07/09 02:14:34;;;;;;;10.43;9.33;;;;;25.00;100683.00;;;;2055091;28;20339;-70
2023/07/09 02:15:36;;;;;;;11.40;10.00;;;;;25.00;100681.00;;;;2050488;28;20224;-70
2023/07/09 02:16:36;;;;;;;10.40;9.40;;;;;25.00;100679.00;;;;2058049;28;20692;-70
2023/07/09 02:17:36;;;;;;;11.50;10.30;;;;;25.00;100685.00;;;;2054974;28;20243;-70
2023/07/09 02:18:37;;;;;;;9.33;8.47;;;;;25.00;100665.00;;;;2046566;28;20860;-70
2023/07/09 02:19:37;;;;;;;10.87;9.80;;;;;25.00;100679.00;;;;2061072;28;20746;-70
2023/07/09 02:20:37;;;;;;;9.50;8.60;;;;;25.00;100682.00;;;;2067036;28;20659;-70
2023/07/09 02:21:38;;;;;;;10.50;9.40;;;;;25.00;100686.00;;;;2053616;28;20234;-70
2023/07/09 02:22:38;;;;;;;9.90;8.90;;;;;25.00;100687.00;;;;2050127;28;20278;-70
2023/07/09 02:23:39;;;;;;;10.53;9.50;;;;;25.00;100691.00;;;;2049419;28;20225;-70
2023/07/09 02:24:39;;;;;;;9.70;8.80;;;;;25.00;100685.00;;;;2068235;28;20257;-70
2023/07/09 02:25:40;;;;;;;9.93;9.03;;;;;25.00;100685.00;;;;2061767;28;20223;-70
2023/07/09 02:26:40;;;;;;;9.30;8.40;;;;;25.00;100682.00;;;;2057841;28;20726;-70
2023/07/09 02:27:41;;;;;;;10.30;9.30;;;;;25.00;100655.00;;;;2058739;28;20246;-70
2023/07/09 02:28:41;;;;;;;10.40;9.40;;;;;25.00;100677.00;;;;2050845;28;20710;-70
2023/07/09 02:29:41;;;;;;;10.33;9.43;;;;;25.00;100682.00;;;;2062682;28;20223;-70
2023/07/09 02:30:42;;;;;;;9.20;8.30;;;;;25.00;100683.00;;;;2062756;28;20258;-70
2023/07/09 02:31:43;;;;;;;10.27;9.27;;;;;25.00;100680.00;;;;2058265;28;20230;-70
2023/07/09 02:32:43;;;;;;;9.40;8.40;;;;;24.90;100681.00;;;;2060204;28;20267;-70
2023/07/09 02:33:43;;;;;;;9.87;8.83;;;;;24.90;100685.00;;;;2051953;28;20843;-70
2023/07/09 02:34:48;;;;;;;9.17;8.33;;;;;24.90;100683.00;;;;2058821;28;20627;-70
2023/07/09 02:35:48;;;;;;;8.80;7.90;;;;;25.00;100681.00;;;;2059406;28;20222;-70
2023/07/09 02:36:49;;;;;;;9.47;8.47;;;;;25.00;100691.00;;;;2057423;28;20454;-70
2023/07/09 02:37:49;;;;;;;9.27;8.33;;;;;25.00;100694.00;;;;2062240;28;20217;-70
2023/07/09 02:38:49;;;;;;;10.00;9.00;;;;;24.90;100695.00;;;;2047620;28;20215;-70
2023/07/09 02:39:50;;;;;;;9.10;8.20;;;;;25.00;100663.00;;;;2059251;28;20284;-70
2023/07/09 02:40:50;;;;;;;9.70;8.70;;;;;25.00;100695.00;;;;2058572;28;20270;-70
2023/07/09 02:41:51;;;;;;;9.33;8.43;;;;;25.00;100687.00;;;;2061249;28;20250;-70
2023/07/09 02:42:51;;;;;;;9.10;8.20;;;;;25.00;100690.00;;;;2054016;28;20235;-70
2023/07/09 02:43:51;;;;;;;9.60;8.73;;;;;25.00;100689.00;;;;2040111;28;20216;-70
2023/07/09 02:44:52;;;;;;;9.43;8.53;;;;;25.00;100687.00;;;;2057496;28;20234;-70
2023/07/09 02:45:52;;;;;;;9.20;8.30;;;;;24.90;100691.00;;;;2063538;28;20218;-70
2023/07/09 02:46:52;;;;;;;9.30;8.40;;;;;25.00;100689.00;;;;2058366;28;20238;-70
2023/07/09 02:47:53;;;;;;;10.23;9.13;;;;;25.00;100690.00;;;;2061675;28;20703;-70
2023/07/09 02:48:53;;;;;;;9.30;8.40;;;;;25.00;100692.00;;;;2050865;28;20751;-70
2023/07/09 02:49:53;;;;;;;9.57;8.67;;;;;24.90;100697.00;;;;2061764;28;20687;-70
2023/07/09 02:50:54;;;;;;;9.63;8.50;;;;;24.90;100700.00;;;;2065408;28;20686;-70
2023/07/09 02:51:54;;;;;;;8.93;8.13;;;;;24.90;100702.00;;;;2057114;28;20215;-70
2023/07/09 02:52:54;;;;;;;9.00;8.20;;;;;24.90;100701.00;;;;2057676;28;20208;-70
2023/07/09 02:53:56;;;;;;;8.67;7.77;;;;;24.90;100695.00;;;;2051586;28;20879;-70
2023/07/09 02:54:56;;;;;;;8.82;8.00;;;;;25.00;100701.00;;;;2061705;28;20718;-70
2023/07/09 02:55:56;;;;;;;8.63;7.83;;;;;24.90;100698.00;;;;2068848;28;20222;-70
2023/07/09 02:56:57;;;;;;;9.07;8.17;;;;;25.00;100694.00;;;;2063841;28;20214;-70
2023/07/09 02:57:57;;;;;;;9.07;8.13;;;;;24.90;100701.00;;;;2056455;28;20227;-70
2023/07/09 02:58:57;;;;;;;9.80;8.77;;;;;25.00;100701.00;;;;2052701;28;20206;-70
2023/07/09 02:59:58;;;;;;;9.50;8.60;;;;;25.00;100688.00;;;;2047609;28;20215;-70
2023/07/09 03:00:58;;;;;;;8.53;7.70;;;;;25.00;100706.00;;;;2048148;28;20218;-70
2023/07/09 03:02:00;;;;;;;9.20;8.10;;;;;24.90;100709.00;;;;2057633;28;20212;-70
2023/07/09 03:03:00;;;;;;;8.40;7.60;;;;;24.90;100704.00;;;;2055455;28;20337;-70
2023/07/09 03:04:01;;;;;;;8.60;7.80;;;;;25.00;100707.00;;;;2053948;28;21280;-70
2023/07/09 03:05:02;;;;;;;8.90;8.07;;;;;25.00;100705.00;;;;2058740;28;20568;-70
2023/07/09 03:06:02;;;;;;;8.87;7.97;;;;;25.00;100702.00;;;;2056455;28;20494;-70
2023/07/09 03:07:02;;;;;;;8.30;7.50;;;;;24.90;100705.00;;;;2067921;28;20214;-70
2023/07/09 03:08:03;;;;;;;8.73;7.83;;;;;24.90;100709.00;;;;2046566;28;20298;-70
2023/07/09 03:09:03;;;;;;;9.20;8.30;;;;;25.00;100704.00;;;;2062550;28;20310;-70
2023/07/09 03:10:04;;;;;;;8.63;7.83;;;;;25.00;100717.00;;;;2061637;28;20725;-70
2023/07/09 03:11:10;;;;;;;9.00;8.20;;;;;24.90;100712.00;;;;2058486;28;21247;-70
2023/07/09 03:12:11;;;;;;;8.27;7.55;;;;;25.00;100704.00;;;;2061411;28;20223;-70
2023/07/09 03:13:11;;;;;;;8.93;8.13;;;;;25.00;100706.00;;;;2047076;28;20217;-70
2023/07/09 03:14:11;;;;;;;8.87;7.97;;;;;24.90;100707.00;;;;2062471;28;20218;-70
2023/07/09 03:15:11;;;;;;;8.70;7.90;;;;;24.90;100717.00;;;;2066569;28;20236;-71
2023/07/09 03:16:12;;;;;;;8.97;8.07;;;;;24.90;100711.00;;;;2061216;28;20211;-70
2023/07/09 03:17:12;;;;;;;7.80;7.10;;;;;24.90;100706.00;;;;2070419;28;20225;-70
2023/07/09 03:18:13;;;;;;;8.40;7.60;;;;;25.00;100711.00;;;;2051589;28;20215;-70
2023/07/09 03:19:13;;;;;;;8.50;7.70;;;;;24.90;100718.00;;;;2055337;28;20227;-70
2023/07/09 03:20:13;;;;;;;8.20;7.50;;;;;25.00;100716.00;;;;2057073;28;20627;-70
2023/07/09 03:21:14;;;;;;;8.37;7.57;;;;;24.90;100717.00;;;;2055705;28;20692;-70
2023/07/09 03:22:14;;;;;;;8.70;7.90;;;;;25.00;100720.00;;;;2063266;28;20640;-70
2023/07/09 03:23:14;;;;;;;8.93;8.07;;;;;24.90;100719.00;;;;2043069;28;20212;-70
2023/07/09 03:24:18;;;;;;;8.50;7.27;;;;;24.90;100720.00;;;;2046754;28;20674;-70
2023/07/09 03:25:19;;;;;;;8.00;7.20;;;;;24.90;100719.00;;;;2047317;28;20216;-70
2023/07/09 03:26:19;;;;;;;8.40;7.60;;;;;24.90;100720.00;;;;2058293;28;21007;-70
2023/07/09 03:27:19;;;;;;;7.90;7.10;;;;;24.90;100714.00;;;;2057160;28;21012;-70
2023/07/09 03:28:20;;;;;;;7.80;7.00;;;;;24.90;100721.00;;;;2052607;28;20215;-70
2023/07/09 03:29:20;;;;;;;8.20;7.37;;;;;24.90;100724.00;;;;2059549;28;20628;-70
2023/07/09 03:30:20;;;;;;;8.10;7.30;;;;;25.00;100732.00;;;;2060656;28;20265;-70
2023/07/09 03:31:21;;;;;;;8.87;7.97;;;;;25.00;100724.00;;;;2063489;28;20218;-70
2023/07/09 03:32:21;;;;;;;8.40;7.60;;;;;24.90;100730.00;;;;2063684;28;20214;-70
2023/07/09 03:33:22;;;;;;;8.20;7.40;;;;;24.90;100725.00;;;;2060404;28;20231;-70
2023/07/09 03:34:22;;;;;;;8.47;7.67;;;;;25.00;100727.00;;;;2062856;28;20221;-70
2023/07/09 03:35:22;;;;;;;7.80;7.10;;;;;24.90;100727.00;;;;2064098;28;20238;-70
2023/07/09 03:36:22;;;;;;;9.20;7.70;;;;;24.90;100733.00;;;;2066450;28;20210;-70
2023/07/09 03:37:23;;;;;;;8.10;7.30;;;;;24.90;100724.00;;;;2063650;28;20218;-70
2023/07/09 03:38:23;;;;;;;7.87;7.07;;;;;24.90;100722.00;;;;2058088;28;20289;-70
2023/07/09 03:39:23;;;;;;;7.83;6.73;;;;;24.90;100681.00;;;;2058812;28;20219;-70
2023/07/09 03:40:24;;;;;;;7.83;7.03;;;;;24.90;100729.00;;;;2058370;28;20311;-70
2023/07/09 03:41:24;;;;;;;7.90;7.20;;;;;24.90;100729.00;;;;2055082;28;20216;-70
2023/07/09 03:42:25;;;;;;;7.50;6.80;;;;;24.90;100730.00;;;;2047414;28;20235;-70
2023/07/09 03:43:25;;;;;;;7.60;6.87;;;;;24.90;100733.00;;;;2046138;28;20231;-70
2023/07/09 03:44:25;;;;;;;8.00;7.20;;;;;24.90;100729.00;;;;2063112;28;20218;-70
2023/07/09 03:45:26;;;;;;;7.97;7.17;;;;;24.90;100677.00;;;;2055924;28;22358;-70
2023/07/09 03:46:26;;;;;;;7.83;7.03;;;;;24.90;100731.00;;;;2047358;28;20319;-70
2023/07/09 03:47:26;;;;;;;7.40;6.70;;;;;24.90;100736.00;;;;2053924;28;20728;-70
2023/07/09 03:48:27;;;;;;;7.20;6.50;;;;;24.90;100728.00;;;;2048272;28;20234;-70
2023/07/09 03:49:27;;;;;;;7.83;7.07;;;;;24.90;100726.00;;;;2061752;28;20687;-70
2023/07/09 03:50:27;;;;;;;7.40;6.70;;;;;24.90;100729.00;;;;2058666;28;20314;-70
2023/07/09 03:51:28;;;;;;;7.07;6.40;;;;;24.90;100733.00;;;;2058342;28;20239;-70
2023/07/09 03:52:28;;;;;;;7.80;7.10;;;;;24.90;100732.00;;;;2059496;28;20218;-70
2023/07/09 03:53:28;;;;;;;7.17;6.50;;;;;24.90;100735.00;;;;2050898;28;20223;-70
2023/07/09 03:54:29;;;;;;;8.20;7.40;;;;;25.00;100706.00;;;;2068476;28;20226;-69
2023/07/09 03:55:29;;;;;;;6.90;6.30;;;;;24.90;100733.00;;;;2063208;28;20987;-69
2023/07/09 03:56:29;;;;;;;7.90;7.20;;;;;25.00;100725.00;;;;2061697;28;20665;-69
2023/07/09 03:57:30;;;;;;;7.03;6.33;;;;;24.90;100726.00;;;;2061680;28;20578;-69
2023/07/09 03:58:31;;;;;;;7.10;6.47;;;;;24.90;100726.00;;;;2052197;28;20234;-69
2023/07/09 03:59:31;;;;;;;9.00;7.60;;;;;24.90;100730.00;;;;2066253;28;20470;-69
2023/07/09 04:00:31;;;;;;;7.90;7.10;;;;;24.90;100727.00;;;;2058442;28;20234;-69
2023/07/09 04:01:32;;;;;;;7.80;7.10;;;;;24.90;100736.00;;;;2059612;28;20215;-69
2023/07/09 04:02:32;;;;;;;7.47;6.77;;;;;24.90;100731.00;;;;2066693;28;20929;-69
2023/07/09 04:03:33;;;;;;;7.30;6.60;;;;;24.90;100725.00;;;;2055794;28;20310;-69
2023/07/09 04:04:33;;;;;;;8.07;7.27;;;;;24.90;100738.00;;;;2065865;28;20215;-69
2023/07/09 04:05:33;;;;;;;7.90;7.10;;;;;24.90;100738.00;;;;2062720;28;20242;-69
2023/07/09 04:06:34;;;;;;;8.80;7.90;;;;;24.90;100735.00;;;;2063910;28;20211;-69
2023/07/09 04:07:34;;;;;;;7.40;6.70;;;;;24.90;100733.00;;;;2053159;28;20234;-70
2023/07/09 04:08:35;;;;;;;7.33;6.70;;;;;24.90;100734.00;;;;2049892;28;20230;-70
2023/07/09 04:09:35;;;;;;;9.07;6.60;;;;;24.90;100732.00;;;;2061889;28;20238;-70
2023/07/09 04:10:35;;;;;;;7.23;6.53;;;;;24.90;100737.00;;;;2063934;28;20222;-70
2023/07/09 04:11:36;;;;;;;7.43;6.70;;;;;24.90;100738.00;;;;2060219;28;20215;-70
2023/07/09 04:12:36;;;;;;;7.20;6.50;;;;;24.90;100740.00;;;;2060791;28;20375;-70
2023/07/09 04:13:36;;;;;;;7.73;6.93;;;;;24.90;100732.00;;;;2047319;28;20231;-70
2023/07/09 04:14:37;;;;;;;6.97;6.30;;;;;24.90;100734.00;;;;2056496;28;20249;-70
2023/07/09 04:15:37;;;;;;;7.77;7.07;;;;;24.90;100730.00;;;;2056129;28;20223;-70
2023/07/09 04:16:37;;;;;;;7.30;6.60;;;;;25.00;100734.00;;;;2059357;28;20218;-70
2023/07/09 04:17:38;;;;;;;7.33;6.43;;;;;24.90;100734.00;;;;2060606;28;20563;-70
2023/07/09 04:18:38;;;;;;;6.80;6.20;;;;;24.90;100736.00;;;;2042385;28;20220;-70
2023/07/09 04:19:39;;;;;;;9.30;6.20;;;;;25.00;100730.00;;;;2055748;28;20238;-70
2023/07/09 04:20:39;;;;;;;7.60;6.90;;;;;24.90;100734.00;;;;2063800;28;20224;-70
2023/07/09 04:21:39;;;;;;;7.50;6.80;;;;;24.90;100739.00;;;;2060929;28;20215;-70
2023/07/09 04:22:40;;;;;;;7.17;6.47;;;;;24.90;100731.00;;;;2060314;28;20239;-70
2023/07/09 04:23:40;;;;;;;7.10;6.47;;;;;24.90;100734.00;;;;2053769;28;20216;-70
2023/07/09 04:24:40;;;;;;;7.60;6.90;;;;;24.90;100714.00;;;;2065004;28;20221;-70
2023/07/09 04:25:41;;;;;;;7.50;6.80;;;;;24.90;100743.00;;;;2063783;28;20262;-70
2023/07/09 04:26:41;;;;;;;7.50;6.80;;;;;24.90;100707.00;;;;2061087;28;20583;-70
2023/07/09 04:27:42;;;;;;;6.90;6.27;;;;;24.90;100736.00;;;;2052980;28;20244;-70
2023/07/09 04:28:42;;;;;;;7.37;6.67;;;;;24.90;100736.00;;;;2047333;28;20219;-70
2023/07/09 04:29:42;;;;;;;6.80;6.10;;;;;24.90;100737.00;;;;2067960;28;20218;-70
2023/07/09 04:30:49;;;;;;;7.67;6.87;;;;;24.90;100733.00;;;;2063468;28;20216;-70
2023/07/09 04:31:50;;;;;;;7.10;6.50;;;;;24.90;100740.00;;;;2057728;28;20249;-70
2023/07/09 04:32:53;;;;;;;6.63;6.03;;;;;24.90;100730.00;;;;2060744;28;20206;-70
2023/07/09 04:33:53;;;;;;;7.05;6.35;;;;;24.90;100739.00;;;;2048360;28;21039;-70
2023/07/09 04:34:54;;;;;;;5.93;5.33;;;;;25.00;100738.00;;;;2064176;28;20219;-70
2023/07/09 04:35:55;;;;;;;6.70;6.00;;;;;25.00;100741.00;;;;2062346;28;20227;-70
2023/07/09 04:36:55;;;;;;;6.88;6.18;;;;;24.90;100735.00;;;;2058321;28;20212;-70
2023/07/09 04:37:56;;;;;;;7.20;6.50;;;;;24.90;100734.00;;;;2064712;28;20202;-70
2023/07/09 04:38:56;;;;;;;7.87;7.07;;;;;24.90;100734.00;;;;2046717;28;20231;-70
2023/07/09 04:39:56;;;;;;;8.70;6.60;;;;;24.90;100735.00;;;;2059015;28;20282;-70
2023/07/09 04:40:57;;;;;;;7.40;6.70;;;;;25.00;100729.00;;;;2061594;28;20215;-70
2023/07/09 04:41:57;;;;;;;6.80;6.00;;;;;24.90;100711.00;;;;2057953;28;20893;-70
2023/07/09 04:42:57;;;;;;;6.60;5.90;;;;;24.90;100724.00;;;;2064224;28;20619;-70
2023/07/09 04:43:58;;;;;;;7.03;6.33;;;;;24.90;100726.00;;;;2053587;28;20753;-70
2023/07/09 04:44:58;;;;;;;6.40;5.80;;;;;24.90;100726.00;;;;2063151;28;20723;-70
2023/07/09 04:45:58;;;;;;;7.43;6.73;;;;;24.90;100728.00;;;;2065605;28;20213;-70
2023/07/09 04:46:59;;;;;;;5.93;5.33;;;;;24.90;100730.00;;;;2059128;28;20703;-70
2023/07/09 04:47:59;;;;;;;6.77;6.07;;;;;24.90;100725.00;;;;2063115;28;20297;-70
2023/07/09 04:49:00;;;;;;;6.57;5.97;;;;;24.90;100726.00;;;;2053102;28;20218;-70
2023/07/09 04:50:00;;;;;;;5.93;5.37;;;;;25.00;100730.00;;;;2062342;28;20215;-70
2023/07/09 04:51:00;;;;;;;6.87;6.27;;;;;25.00;100715.00;;;;2067330;28;20463;-70
2023/07/09 04:52:01;;;;;;;7.13;6.43;;;;;25.00;100735.00;;;;2058134;28;20235;-70
2023/07/09 04:53:01;;;;;;;6.23;5.63;;;;;24.90;100737.00;;;;2064254;28;20207;-70
2023/07/09 04:54:04;;;;;;;6.90;5.80;;;;;25.00;100730.00;;;;2045678;28;20294;-70
2023/07/09 04:55:05;;;;;;;6.50;5.90;;;;;25.00;100730.00;;;;2053683;28;20215;-70
2023/07/09 04:56:06;;;;;;;7.07;6.33;;;;;25.00;100731.00;;;;2056623;28;20816;-70
2023/07/09 04:57:06;;;;;;;7.43;6.73;;;;;25.00;100729.00;;;;2060399;28;20207;-70
2023/07/09 04:58:06;;;;;;;6.90;6.20;;;;;25.00;100730.00;;;;2045599;28;20224;-70
2023/07/09 04:59:07;;;;;;;7.17;6.47;;;;;25.00;100735.00;;;;2047481;28;20252;-70
2023/07/09 05:00:08;;;;;;;6.57;5.97;;;;;25.00;100742.00;;;;2061865;28;20758;-70